ニジネヴァルトフスク の空港の天気 - METARとTAF

Nizhnevartovsk ( USNN / NJC ) - ロシア ニジネヴァルトフスク
飛行場実況気象(Metar)
観測時間02/28 05:30 +05 (02/28 00:30 UTC)
風向・風速南西 6m/s
視程10km以上
天気現象
なし
気温-9℃
湿度92%
気圧1013hPa
METARUSNN 280030Z 23006MPS CAVOK M09/M10 Q1013 WS R21 R21/32//60 NOSIG RMK QFE755
過去の天気等 Google飛行場航空写真 Wunderground天気予報

過去48時間のMETAR

飛行場予報(TAF)
発表時間: 2/28 04:00 +05 (2/27 23:00 UTC)
予報対象時間: 28日5時 +05 ~ 1日5時 +05
風向・風速西南西 7m/s 瞬間風速 13m/s
視程4,000m
天気現象弱いしゅう雪
全天の8割程度の積乱雲 雲底高度 460m
全天を覆う雲 雲底高度 1,520m
28日5時 +05 ~ 28日8時 +05 に一時的に
風向・風速南西 8m/s 瞬間風速 19m/s
視程1,000m
天気現象しゅう雪 高い地吹雪
全天を覆う雲 鉛直視程 90m
28日8時 +05 ~ 28日9時 +05 に徐々に
風向・風速南南西 6m/s 瞬間風速 12m/s
TAF USNN 272300Z 2800/2824 24007G13MPS 4000 -SHSN BKN015CB OVC050
TEMPO 2800/2803 23008G19MPS 1000 SHSN BLSN VV003
BECMG 2803/2804 20006G12MPS